Time;durP1;ratioP1;P1;durP2;ratioP2;P2;SDS_P1;SDS_P2;PMS_P1;PMS_P2;Temp;Humidity;BMP_temperature;BMP_pressure;BME280_temperature;BME280_humidity;BME280_pressure;Samples;Min_cycle;Max_cycle;Signal;HPM_P1;HPM_P2
2024/01/05 00:00:30;;;;;;;1.20;0.40;;;8.90;93.80;;;7.23;71.23;99401.94;10249134;28;96615;-83
2024/01/05 00:05:35;;;;;;;1.13;0.30;;;8.90;93.80;;;7.19;71.62;99405.91;10254280;28;96531;-82
2024/01/05 00:10:38;;;;;;;1.07;0.20;;;8.90;93.90;;;7.15;71.81;99423.09;10249637;28;97396;-82
2024/01/05 00:15:42;;;;;;;1.03;0.33;;;8.80;93.90;;;7.13;71.71;99440.06;10279941;28;97427;-82
2024/01/05 00:20:46;;;;;;;0.80;0.33;;;8.80;93.90;;;7.10;72.17;99448.34;10264215;28;96554;-82
2024/01/05 00:25:49;;;;;;;0.73;0.13;;;8.70;93.90;;;7.07;72.09;99452.13;10245885;28;96580;-82
2024/01/05 00:30:53;;;;;;;1.47;0.23;;;8.70;93.90;;;7.05;72.69;99469.16;10220980;28;96620;-82
2024/01/05 00:35:56;;;;;;;0.50;0.20;;;8.70;94.00;;;6.95;72.58;99478.03;10280833;28;96563;-82
2024/01/05 00:41:00;;;;;;;2.43;0.50;;;8.70;94.10;;;6.94;72.44;99489.59;10282353;28;97332;-82
2024/01/05 00:46:03;;;;;;;1.53;0.40;;;8.60;94.10;;;6.89;72.73;99485.78;10244050;28;96695;-82
2024/01/05 00:51:07;;;;;;;3.30;0.53;;;8.60;94.10;;;6.81;73.01;99483.94;10247921;28;96647;-82
2024/01/05 00:56:10;;;;;;;0.77;0.23;;;8.60;94.10;;;6.71;73.56;99489.34;10278842;28;96947;-82
2024/01/05 01:01:15;;;;;;;0.33;0.20;;;8.40;94.20;;;6.66;73.93;99499.59;10244371;28;98225;-82
2024/01/05 01:06:19;;;;;;;2.60;0.50;;;8.40;94.30;;;6.75;72.85;99496.97;10241640;28;97247;-82
2024/01/05 01:11:24;;;;;;;2.77;0.40;;;8.40;94.20;;;6.85;72.25;99513.53;10248526;28;96611;-82
2024/01/05 01:16:31;;;;;;;1.77;0.60;;;8.50;94.10;;;6.81;72.30;99502.44;10245461;28;96899;-81
2024/01/05 01:21:35;;;;;;;2.77;0.53;;;8.50;94.00;;;6.87;72.14;99509.72;10244806;28;98159;-82
2024/01/05 01:26:38;;;;;;;0.87;0.30;;;8.50;94.00;;;6.91;72.11;99516.34;10244322;28;96697;-82
2024/01/05 01:31:43;;;;;;;1.77;1.07;;;8.60;93.90;;;6.89;71.77;99507.72;10244655;28;96605;-82
2024/01/05 01:36:46;;;;;;;0.50;0.27;;;8.60;93.90;;;6.84;72.52;99502.13;10244153;28;98610;-82
2024/01/05 01:41:50;;;;;;;0.83;0.30;;;8.50;94.00;;;6.76;72.67;99498.63;10237401;28;97472;-82
2024/01/05 01:46:56;;;;;;;2.53;0.30;;;8.50;94.00;;;6.75;73.03;99487.22;10240465;28;98841;-82
2024/01/05 01:51:59;;;;;;;1.00;0.10;;;8.40;94.10;;;6.71;73.81;99488.53;10228630;28;96717;-82
2024/01/05 01:57:04;;;;;;;0.87;0.20;;;8.40;94.10;;;6.78;73.23;99470.22;10267354;28;98223;-82
2024/01/05 02:02:09;;;;;;;0.70;0.20;;;8.50;94.10;;;6.84;73.07;99466.97;10234893;28;98410;-82
2024/01/05 02:07:13;;;;;;;4.07;0.40;;;8.50;94.10;;;6.81;73.15;99443.50;10240791;28;98957;-82
2024/01/05 02:12:20;;;;;;;1.07;0.30;;;8.60;93.90;;;6.78;72.92;99439.41;10271745;28;98268;-83
2024/01/05 02:17:31;;;;;;;2.80;0.40;;;8.50;93.90;;;6.76;73.25;99441.34;10275991;28;96539;-82
2024/01/05 02:22:37;;;;;;;0.22;0.17;;;8.50;93.90;;;6.74;73.36;99430.13;10240200;28;96671;-82
2024/01/05 02:27:41;;;;;;;2.33;0.10;;;8.40;93.90;;;6.69;73.84;99441.16;10240881;28;96501;-82
2024/01/05 02:32:44;;;;;;;2.40;0.30;;;8.40;93.90;;;6.62;74.17;99434.88;10243225;28;96599;-82
2024/01/05 02:37:48;;;;;;;0.40;0.20;;;8.40;94.00;;;6.48;75.04;99432.88;10250077;28;97913;-82
2024/01/05 02:42:52;;;;;;;1.27;0.20;;;8.30;94.10;;;6.38;75.44;99440.09;10239961;28;97288;-82
2024/01/05 02:48:01;;;;;;;0.80;0.20;;;8.20;94.20;;;6.25;76.51;99435.25;10270949;28;98952;-81
2024/01/05 02:53:05;;;;;;;3.13;0.40;;;8.10;94.40;;;6.06;77.34;99461.88;10241762;28;97280;-82
2024/01/05 02:58:09;;;;;;;3.73;0.70;;;7.90;94.40;;;5.88;78.36;99454.00;10235876;28;97434;-81
2024/01/05 03:03:12;;;;;;;26.77;6.60;;;7.70;94.60;;;5.68;79.36;99463.09;10260438;28;99700;-82
2024/01/05 03:08:16;;;;;;;18.80;4.40;;;7.50;94.70;;;5.46;80.54;99469.66;10249056;28;97198;-82
2024/01/05 03:13:20;;;;;;;3.30;0.90;;;7.40;94.90;;;5.27;82.15;99466.22;10249672;28;97331;-82
2024/01/05 03:18:24;;;;;;;2.23;0.47;;;7.20;95.10;;;5.18;83.61;99455.78;10241917;28;98116;-82
2024/01/05 03:23:27;;;;;;;0.73;0.27;;;7.00;95.30;;;5.16;84.17;99463.00;10248987;28;98152;-81
2024/01/05 03:28:31;;;;;;;0.33;0.20;;;7.00;95.50;;;5.12;84.52;99457.22;10249808;28;96643;-82
2024/01/05 03:33:35;;;;;;;0.50;0.27;;;6.90;95.70;;;5.07;84.96;99455.03;10246079;28;97739;-81
2024/01/05 03:38:38;;;;;;;2.13;0.23;;;6.90;95.90;;;4.98;86.58;99441.97;10245836;28;98388;-81
2024/01/05 03:43:42;;;;;;;0.43;0.20;;;6.80;96.50;;;5.02;86.87;99428.31;10277682;28;97649;-82
2024/01/05 03:48:45;;;;;;;0.30;0.10;;;6.90;96.50;;;5.10;86.31;99430.22;10250574;28;98713;-82
2024/01/05 03:53:49;;;;;;;1.60;0.30;;;6.90;96.60;;;5.21;85.31;99448.41;10250682;28;97703;-82
2024/01/05 03:58:52;;;;;;;2.20;0.70;;;7.00;96.40;;;5.23;85.23;99440.38;10244483;28;98149;-82
2024/01/05 04:03:57;;;;;;;1.07;0.47;;;7.00;96.50;;;5.22;84.70;99449.25;10249879;28;98300;-82
2024/01/05 04:09:01;;;;;;;0.60;0.30;;;7.00;96.40;;;5.21;84.09;99458.94;10257160;28;96610;-82
2024/01/05 04:14:06;;;;;;;0.93;0.27;;;7.00;96.40;;;5.13;84.95;99461.50;10251121;28;96596;-82
2024/01/05 04:19:10;;;;;;;1.83;0.40;;;6.90;96.40;;;5.02;85.52;99465.19;10263459;28;97841;-82
2024/01/05 04:24:14;;;;;;;2.70;0.80;;;6.90;96.40;;;4.87;86.03;99469.34;10251031;28;96471;-82
2024/01/05 04:29:18;;;;;;;9.13;2.97;;;6.70;96.40;;;4.64;86.98;99470.72;10240174;28;98938;-82
2024/01/05 04:34:21;;;;;;;2.57;1.20;;;6.50;96.70;;;4.33;87.84;99473.66;10245774;28;98030;-82
2024/01/05 04:39:25;;;;;;;3.37;1.17;;;6.30;96.40;;;4.07;89.42;99476.09;10259774;28;98745;-82
2024/01/05 04:44:28;;;;;;;7.73;2.27;;;6.00;96.60;;;4.02;91.85;99467.84;10229429;28;96667;-82
2024/01/05 04:49:33;;;;;;;4.47;1.40;;;5.90;97.10;;;3.91;92.61;99476.72;10245830;28;97640;-82
2024/01/05 04:54:37;;;;;;;9.53;2.37;;;5.80;97.20;;;3.85;93.71;99479.91;10240810;28;97495;-82
2024/01/05 04:59:41;;;;;;;8.40;2.97;;;5.70;97.30;;;3.76;93.80;99496.53;10240146;28;96461;-82
2024/01/05 05:04:45;;;;;;;6.63;2.57;;;5.70;97.40;;;3.62;94.19;99504.84;10249751;28;96573;-82
2024/01/05 05:09:51;;;;;;;7.53;2.23;;;5.60;97.40;;;3.39;94.55;99515.66;10246164;28;96874;-82
2024/01/05 05:14:54;;;;;;;4.20;1.70;;;5.40;97.30;;;3.14;95.23;99527.53;10241670;28;98004;-82
2024/01/05 05:19:58;;;;;;;3.53;1.30;;;5.20;97.40;;;2.90;96.81;99521.81;10242985;28;97360;-81
2024/01/05 05:25:02;;;;;;;3.77;1.67;;;4.90;97.60;;;2.64;97.76;99508.38;10246647;28;98055;-82
2024/01/05 05:30:10;;;;;;;6.57;2.17;;;4.70;97.80;;;2.46;98.79;99516.06;10241361;28;98750;-82
2024/01/05 05:35:14;;;;;;;7.60;3.07;;;4.50;97.90;;;2.35;100.00;99526.63;10246987;28;98588;-82
2024/01/05 05:40:17;;;;;;;8.60;3.17;;;4.40;98.40;;;2.18;100.00;99532.50;10245210;28;97446;-82
2024/01/05 05:45:20;;;;;;;5.87;1.77;;;4.20;98.80;;;2.03;100.00;99526.75;10239560;28;96624;-82
2024/01/05 05:50:24;;;;;;;4.40;1.07;;;4.10;98.70;;;1.82;100.00;99535.47;10240714;28;96886;-82
2024/01/05 05:55:27;;;;;;;6.77;1.33;;;3.90;98.90;;;1.78;100.00;99557.63;10231841;28;98062;-81
2024/01/05 06:00:32;;;;;;;2.23;0.83;;;3.80;99.30;;;1.79;100.00;99561.06;10247731;28;97053;-82
2024/01/05 06:05:36;;;;;;;2.40;0.70;;;3.80;99.50;;;1.80;100.00;99568.81;10260016;28;96637;-82
2024/01/05 06:10:40;;;;;;;5.67;1.23;;;3.80;99.90;;;1.83;100.00;99586.91;10257712;28;96737;-83
2024/01/05 06:15:44;;;;;;;8.17;2.40;;;3.80;99.90;;;1.89;100.00;99603.91;10239227;28;97983;-83
2024/01/05 06:20:48;;;;;;;6.33;2.10;;;3.90;99.90;;;1.92;100.00;99603.66;10228564;28;98624;-83
2024/01/05 06:25:51;;;;;;;7.73;2.50;;;3.90;99.90;;;1.99;100.00;99610.03;10233669;28;97093;-83
2024/01/05 06:30:55;;;;;;;4.40;1.87;;;4.00;99.90;;;2.15;100.00;99613.03;10234995;28;97642;-83
2024/01/05 06:35:59;;;;;;;1.40;0.60;;;4.10;99.90;;;2.39;100.00;99604.06;10272568;28;97269;-83
2024/01/05 06:41:03;;;;;;;5.77;1.27;;;4.20;99.90;;;2.73;100.00;99604.63;10234061;28;100997;-83
2024/01/05 06:46:06;;;;;;;1.53;0.80;;;4.50;99.90;;;2.87;100.00;99612.13;10249835;28;96724;-83
2024/01/05 06:51:10;;;;;;;1.30;0.63;;;4.70;99.90;;;3.01;100.00;99610.13;10279562;28;98232;-84
2024/01/05 06:56:13;;;;;;;1.77;0.57;;;4.80;99.90;;;3.15;100.00;99594.00;10226844;28;97786;-84
2024/01/05 07:01:17;;;;;;;3.53;1.17;;;5.00;99.90;;;3.35;100.00;99577.28;10263967;28;98231;-84
2024/01/05 07:06:21;;;;;;;8.70;1.97;;;5.10;99.90;;;3.58;100.00;99584.91;10261401;28;96549;-84
2024/01/05 07:11:25;;;;;;;8.77;2.73;;;5.30;99.90;;;3.64;100.00;99579.94;10280415;28;98118;-84
2024/01/05 07:16:28;;;;;;;3.57;1.27;;;5.40;99.90;;;3.69;100.00;99579.53;10263276;28;96770;-84
2024/01/05 07:21:33;;;;;;;6.47;2.03;;;5.40;99.90;;;3.80;100.00;99575.91;10258264;28;98553;-84
2024/01/05 07:26:37;;;;;;;4.70;1.77;;;5.50;99.90;;;4.07;100.00;99572.56;10267313;28;97077;-84
2024/01/05 07:31:40;;;;;;;7.47;4.00;;;5.70;99.90;;;4.22;100.00;99573.78;10278192;28;97196;-84
2024/01/05 07:36:44;;;;;;;10.20;4.13;;;5.90;99.90;;;4.41;100.00;99560.56;10248054;28;98807;-84
2024/01/05 07:41:49;;;;;;;7.10;2.80;;;6.00;99.90;;;4.88;100.00;99549.13;10259810;28;96568;-84
2024/01/05 07:46:52;;;;;;;3.17;0.80;;;6.20;99.90;;;5.54;100.00;99548.81;10250749;28;96506;-84
2024/01/05 07:51:56;;;;;;;1.47;0.60;;;6.50;99.90;;;6.31;100.00;99544.63;10241532;28;96700;-83
2024/01/05 07:56:59;;;;;;;4.17;1.10;;;7.00;99.90;;;7.16;100.00;99543.63;10253685;28;96609;-84
2024/01/05 08:02:03;;;;;;;5.17;2.43;;;7.50;99.90;;;7.66;97.75;99526.84;10249251;28;96833;-84
2024/01/05 08:07:06;;;;;;;4.03;1.43;;;8.00;99.90;;;8.02;94.06;99539.72;10232612;28;96588;-83
2024/01/05 08:12:10;;;;;;;7.30;3.63;;;8.50;99.90;;;8.42;91.88;99545.97;10278267;28;97630;-84
2024/01/05 08:17:14;;;;;;;20.73;8.53;;;8.90;99.90;;;8.72;88.07;99549.66;10248259;28;97237;-84
2024/01/05 08:22:18;;;;;;;17.63;7.50;;;9.30;99.90;;;9.06;83.69;99544.06;10227504;28;96728;-84
2024/01/05 08:27:22;;;;;;;15.13;6.90;;;9.60;99.90;;;9.55;82.29;99549.03;10230551;28;96664;-84
2024/01/05 08:32:25;;;;;;;18.67;7.23;;;10.10;99.90;;;9.90;80.29;99553.72;10243338;28;97190;-85
2024/01/05 08:37:28;;;;;;;4.33;2.33;;;10.60;99.90;;;10.13;76.25;99566.13;10225181;28;96614;-84
2024/01/05 08:42:32;;;;;;;4.87;2.57;;;10.90;99.70;;;10.08;76.12;99544.63;10247117;28;96541;-85
2024/01/05 08:47:37;;;;;;;6.20;2.20;;;11.00;99.60;;;10.23;76.84;99558.75;10238043;28;96956;-84
2024/01/05 08:52:41;;;;;;;10.67;4.10;;;11.30;99.70;;;10.69;74.04;99574.56;10278840;28;96980;-85
2024/01/05 08:57:46;;;;;;;6.40;3.42;;;11.70;99.30;;;10.87;69.61;99588.28;10248536;28;98362;-84
2024/01/05 09:02:49;;;;;;;6.57;2.60;;;12.00;98.70;;;10.54;66.88;99587.00;10237720;28;97166;-85
2024/01/05 09:07:53;;;;;;;7.00;2.57;;;11.80;97.60;;;9.88;66.85;99579.59;10247474;28;96638;-85
2024/01/05 09:12:56;;;;;;;11.40;3.00;;;11.40;96.80;;;9.28;68.61;99577.69;10280788;28;96527;-85
2024/01/05 09:18:00;;;;;;;9.33;3.13;;;11.00;96.30;;;8.94;70.88;99588.66;10248976;28;96539;-85
2024/01/05 09:23:03;;;;;;;13.53;4.53;;;10.70;96.70;;;9.14;73.78;99599.66;10247861;28;97165;-85
2024/01/05 09:28:07;;;;;;;10.90;5.00;;;10.90;97.00;;;9.65;72.55;99600.00;10237592;28;96615;-85
2024/01/05 09:33:10;;;;;;;9.70;4.13;;;11.50;97.10;;;10.04;71.02;99604.38;10266170;28;98075;-85
2024/01/05 09:38:14;;;;;;;8.27;4.30;;;11.80;96.40;;;9.99;69.03;99591.63;10231958;28;97385;-85
2024/01/05 09:43:18;;;;;;;10.37;4.60;;;11.80;95.70;;;9.69;69.12;99597.84;10227198;28;98096;-85
2024/01/05 09:48:24;;;;;;;7.93;3.10;;;11.50;95.20;;;9.33;70.32;99593.09;10250970;28;98516;-84
2024/01/05 09:53:38;;;;;;;5.83;2.87;;;11.10;94.90;;;9.00;70.88;99581.84;10246144;28;96881;-85
2024/01/05 09:58:45;;;;;;;8.90;3.03;;;10.80;94.70;;;8.73;72.81;99575.97;10242272;28;98017;-85
2024/01/05 10:03:54;;;;;;;6.37;3.07;;;10.50;94.70;;;8.55;73.63;99562.13;10216077;28;98405;-85
2024/01/05 10:08:59;;;;;;;7.20;3.00;;;10.30;94.80;;;8.43;73.98;99547.59;10238774;28;96936;-85
2024/01/05 10:14:05;;;;;;;10.00;3.27;;;10.10;94.80;;;8.32;73.23;99543.47;10263395;28;98302;-85
2024/01/05 10:19:13;;;;;;;9.53;2.90;;;10.00;94.70;;;8.25;73.69;99518.66;10247102;28;97485;-85
2024/01/05 10:24:21;;;;;;;4.83;2.30;;;9.90;94.70;;;8.18;73.01;99510.56;10260324;28;97472;-84
2024/01/05 10:29:27;;;;;;;5.90;2.03;;;9.90;94.60;;;8.17;73.45;99501.00;10236227;28;96560;-85
2024/01/05 10:34:34;;;;;;;5.37;2.00;;;9.90;94.70;;;8.19;73.95;99498.16;10244898;28;101359;-85
2024/01/05 10:39:51;;;;;;;14.53;3.03;;;9.90;94.70;;;8.26;74.21;99499.97;10238445;28;98945;-85
2024/01/05 10:44:57;;;;;;;5.90;1.83;;;9.90;94.70;;;8.35;72.46;99489.38;10256281;28;96638;-85
2024/01/05 10:50:04;;;;;;;3.47;1.70;;;10.00;94.40;;;8.40;72.31;99479.13;10248718;28;96754;-85
2024/01/05 10:55:10;;;;;;;8.80;2.13;;;10.10;94.20;;;8.51;72.38;99462.84;10241941;28;96608;-85
2024/01/05 11:00:14;;;;;;;4.80;1.50;;;10.20;94.60;;;9.06;71.28;99454.75;10217791;28;98622;-85
2024/01/05 11:05:20;;;;;;;4.43;1.83;;;10.80;94.00;;;9.38;68.84;99456.34;10240213;28;96590;-85
2024/01/05 11:11:04;;;;;;;4.20;2.00;;;11.10;93.50;;;9.62;67.22;99450.00;10275268;28;96593;-85
2024/01/05 11:17:06;;;;;;;7.60;2.47;;;11.30;93.50;;;9.63;65.38;99453.47;10247488;28;97654;-85
2024/01/05 11:22:14;;;;;;;7.37;1.97;;;11.30;93.20;;;9.41;65.60;99435.75;10242507;28;96662;-84
2024/01/05 11:27:33;;;;;;;3.80;1.83;;;11.10;92.70;;;9.27;65.42;99432.88;10244651;28;98155;-85
2024/01/05 11:32:44;;;;;;;2.93;1.50;;;10.90;92.50;;;9.22;65.37;99419.34;10281934;28;96694;-85
2024/01/05 11:37:48;;;;;;;2.83;1.27;;;10.90;92.30;;;9.18;65.18;99418.06;10244804;28;97574;-84
2024/01/05 11:42:53;;;;;;;2.47;1.27;;;10.80;91.60;;;9.11;64.64;99409.97;10276537;28;99263;-85
2024/01/05 11:47:56;;;;;;;3.83;1.60;;;10.80;91.70;;;9.00;64.91;99407.75;10277987;28;98139;-85
2024/01/05 11:53:17;;;;;;;3.53;1.60;;;10.70;91.60;;;8.93;64.98;99411.28;10271633;28;98745;-84
2024/01/05 11:58:25;;;;;;;3.50;1.40;;;10.60;91.60;;;8.83;65.59;99409.69;10257332;28;96534;-85
2024/01/05 12:03:30;;;;;;;5.37;1.60;;;10.50;91.70;;;8.75;66.43;99407.09;10261938;28;96562;-84
2024/01/05 12:08:34;;;;;;;5.33;1.60;;;10.50;91.90;;;8.78;66.03;99429.75;10281174;28;96547;-85
2024/01/05 12:13:39;;;;;;;3.63;1.50;;;10.50;92.10;;;8.83;67.11;99422.94;10236814;28;96709;-85
2024/01/05 12:18:50;;;;;;;3.97;1.83;;;10.60;92.40;;;8.99;67.43;99413.22;10243005;28;97711;-85
2024/01/05 12:23:55;;;;;;;3.10;1.43;;;10.70;92.60;;;9.18;68.00;99407.47;10282968;28;97020;-85
2024/01/05 12:29:00;;;;;;;4.80;1.60;;;10.90;92.50;;;9.31;67.47;99401.56;10248555;28;96661;-85
2024/01/05 12:34:04;;;;;;;5.77;2.07;;;11.00;92.00;;;9.41;67.22;99401.28;10242451;28;98630;-86
2024/01/05 12:39:11;;;;;;;4.37;2.10;;;11.10;92.30;;;9.45;65.28;99399.94;10281613;28;96745;-85
2024/01/05 12:44:16;;;;;;;5.60;2.23;;;11.20;92.10;;;9.44;65.42;99396.47;10239620;28;96799;-85
2024/01/05 12:49:25;;;;;;;6.20;2.47;;;11.20;92.10;;;9.41;65.27;99382.72;10255675;28;98548;-85
2024/01/05 12:54:40;;;;;;;6.43;2.20;;;11.20;92.00;;;9.39;65.91;99375.78;10230894;28;96485;-85
2024/01/05 12:59:44;;;;;;;7.93;3.90;;;11.10;91.90;;;9.37;66.85;99363.72;10245618;28;96672;-85
2024/01/05 13:04:48;;;;;;;8.47;4.63;;;11.10;92.40;;;9.37;67.23;99364.53;10267610;28;96615;-85
2024/01/05 13:09:51;;;;;;;6.00;2.53;;;11.10;92.30;;;9.42;68.79;99358.69;10239874;28;98108;-84
2024/01/05 13:14:55;;;;;;;6.83;4.73;;;11.20;92.50;;;9.44;68.33;99361.16;10241796;28;96823;-85
2024/01/05 13:19:58;;;;;;;6.97;2.50;;;11.20;92.40;;;9.43;67.97;99362.19;10274938;28;96752;-85
2024/01/05 13:25:03;;;;;;;4.57;2.53;;;11.20;92.50;;;9.36;67.98;99362.91;10267912;28;97667;-85
2024/01/05 13:30:11;;;;;;;5.93;2.73;;;11.10;92.50;;;9.30;69.03;99360.97;10227990;28;98206;-85
2024/01/05 13:35:17;;;;;;;5.97;2.65;;;11.10;92.50;;;9.20;69.45;99341.84;10248289;28;96897;-85
2024/01/05 13:40:21;;;;;;;6.77;3.30;;;11.00;92.60;;;9.07;70.45;99350.41;10241945;28;97028;-85
2024/01/05 13:45:24;;;;;;;5.23;3.00;;;10.90;92.70;;;9.01;71.79;99361.72;10274995;28;97401;-85
2024/01/05 13:50:28;;;;;;;6.40;3.27;;;10.80;92.90;;;8.95;72.57;99361.59;10239279;28;96827;-85
2024/01/05 13:55:33;;;;;;;5.70;3.23;;;10.80;93.10;;;8.90;73.44;99350.69;10270034;28;97907;-85
2024/01/05 14:00:38;;;;;;;12.23;5.30;;;10.70;93.20;;;8.83;74.19;99342.66;10244014;28;96622;-85
2024/01/05 14:05:42;;;;;;;11.03;5.23;;;10.60;93.30;;;8.75;74.83;99346.16;10230532;28;97681;-85
2024/01/05 14:10:46;;;;;;;10.50;5.03;;;10.60;93.40;;;8.67;75.62;99348.88;10255725;28;96566;-85
2024/01/05 14:15:49;;;;;;;9.93;4.97;;;10.50;93.50;;;8.60;76.17;99340.00;10237030;28;96581;-86
2024/01/05 14:20:53;;;;;;;8.43;4.10;;;10.40;93.60;;;8.54;76.53;99343.34;10226433;28;97289;-86
2024/01/05 14:25:57;;;;;;;11.43;4.67;;;10.40;93.80;;;8.43;77.08;99343.75;10233701;28;100059;-86
2024/01/05 14:31:01;;;;;;;9.03;4.77;;;10.30;93.90;;;8.33;77.72;99328.03;10267398;28;98075;-86
2024/01/05 14:36:05;;;;;;;14.13;5.33;;;10.20;93.90;;;8.20;78.96;99344.47;10250633;28;97004;-86
2024/01/05 14:41:09;;;;;;;13.67;5.70;;;10.10;94.10;;;8.04;80.12;99349.88;10240591;28;96661;-86
2024/01/05 14:46:14;;;;;;;19.53;7.30;;;9.90;94.50;;;7.93;81.66;99363.47;10241412;28;96508;-86
2024/01/05 14:51:18;;;;;;;15.10;6.07;;;9.80;94.40;;;7.82;82.71;99363.84;10232824;28;96554;-86
2024/01/05 14:56:21;;;;;;;21.47;7.80;;;9.70;94.70;;;7.70;83.66;99355.44;10238407;28;98722;-86
2024/01/05 15:01:25;;;;;;;17.80;7.00;;;9.60;94.90;;;7.53;85.08;99364.41;10230276;28;97102;-86
2024/01/05 15:06:29;;;;;;;24.40;7.90;;;9.40;95.20;;;7.37;86.10;99373.19;10249948;28;96551;-86
2024/01/05 15:11:32;;;;;;;22.17;8.60;;;9.30;95.20;;;7.18;87.54;99377.00;10238690;28;97359;-85
2024/01/05 15:16:40;;;;;;;17.47;8.00;;;9.10;95.40;;;7.01;88.47;99378.00;10231171;28;96692;-85
2024/01/05 15:21:44;;;;;;;22.80;9.73;;;8.90;95.60;;;6.84;89.68;99378.00;10249315;28;97374;-85
2024/01/05 15:26:48;;;;;;;28.13;9.63;;;8.80;95.80;;;6.66;91.25;99380.78;10276736;28;97412;-86
2024/01/05 15:31:52;;;;;;;24.27;8.90;;;8.60;96.10;;;6.52;92.57;99373.47;10251298;28;98574;-86
2024/01/05 15:36:56;;;;;;;34.30;13.90;;;8.40;96.30;;;6.39;94.07;99370.50;10248302;28;96735;-86
2024/01/05 15:41:59;;;;;;;37.00;12.93;;;8.30;96.60;;;6.25;95.25;99384.31;10250789;28;98717;-86
2024/01/05 15:47:03;;;;;;;36.23;17.43;;;8.20;96.80;;;6.11;96.49;99383.91;10247095;28;96532;-86
2024/01/05 15:52:06;;;;;;;31.30;14.53;;;8.00;97.00;;;5.96;98.42;99380.25;10240734;28;98120;-85
2024/01/05 15:57:15;;;;;;;30.37;13.10;;;7.90;97.40;;;5.80;99.55;99388.84;10244263;28;96809;-85
2024/01/05 16:02:19;;;;;;;26.40;13.13;;;7.70;97.50;;;5.61;100.00;99375.91;10265362;28;96755;-85
2024/01/05 16:07:23;;;;;;;32.03;14.77;;;7.50;97.70;;;5.46;100.00;99386.22;10265930;28;96673;-85
2024/01/05 16:12:26;;;;;;;30.87;13.53;;;7.40;98.00;;;5.32;100.00;99384.13;10251963;28;96581;-86
2024/01/05 16:17:34;;;;;;;27.03;13.70;;;7.20;98.20;;;5.23;100.00;99383.25;10240355;28;96578;-85
2024/01/05 16:22:38;;;;;;;34.20;15.40;;;7.10;98.50;;;5.17;100.00;99397.03;10251177;28;97133;-86
2024/01/05 16:27:42;;;;;;;27.53;12.03;;;7.10;98.80;;;5.08;100.00;99390.03;10250932;28;96821;-86
2024/01/05 16:32:46;;;;;;;29.57;13.77;;;7.00;99.00;;;5.02;100.00;99391.47;10285192;28;96512;-85
2024/01/05 16:37:49;;;;;;;30.37;15.13;;;6.90;99.30;;;4.99;100.00;99389.13;10254188;28;96572;-85
2024/01/05 16:42:52;;;;;;;26.73;13.73;;;6.90;99.50;;;5.02;100.00;99393.25;10249676;28;98007;-85
2024/01/05 16:47:56;;;;;;;33.57;14.50;;;6.90;99.90;;;4.99;100.00;99383.88;10253590;28;96424;-85
2024/01/05 16:53:00;;;;;;;35.33;15.90;;;6.90;99.90;;;4.98;100.00;99381.41;10250518;28;96611;-85
2024/01/05 16:58:04;;;;;;;51.33;21.87;;;6.90;99.90;;;4.96;100.00;99389.44;10232589;28;96483;-86
2024/01/05 17:03:09;;;;;;;40.40;16.27;;;6.80;99.90;;;4.94;100.00;99399.28;10237506;28;98680;-84
2024/01/05 17:08:13;;;;;;;46.97;21.37;;;6.80;99.90;;;4.91;100.00;99399.59;10259360;28;96512;-84
2024/01/05 17:13:16;;;;;;;49.57;22.50;;;6.80;99.90;;;4.91;100.00;99404.03;10252634;28;96605;-84
2024/01/05 17:18:21;;;;;;;42.83;18.77;;;6.70;99.90;;;4.87;100.00;99398.25;10248265;28;98484;-84
2024/01/05 17:23:30;;;;;;;45.70;19.33;;;6.70;99.90;;;4.80;100.00;99402.47;10239904;28;96629;-84
2024/01/05 17:28:34;;;;;;;45.13;19.10;;;6.70;99.90;;;4.75;100.00;99388.94;10260596;28;99235;-84
2024/01/05 17:33:39;;;;;;;34.50;16.63;;;6.60;99.90;;;4.70;100.00;99388.53;10248931;28;98714;-84
2024/01/05 17:38:44;;;;;;;41.43;17.67;;;6.60;99.90;;;4.58;100.00;99387.94;10257709;28;98593;-84
2024/01/05 17:43:47;;;;;;;32.73;15.57;;;6.50;99.90;;;4.56;100.00;99389.91;10242873;28;97608;-84
2024/01/05 17:48:51;;;;;;;36.40;16.20;;;6.50;99.90;;;4.56;100.00;99384.63;10241702;28;98007;-84
2024/01/05 17:53:59;;;;;;;33.57;15.87;;;6.50;99.90;;;4.52;100.00;99386.72;10232330;28;98235;-84
2024/01/05 17:59:05;;;;;;;31.97;14.43;;;6.40;99.90;;;4.50;100.00;99398.38;10244656;28;98611;-84
2024/01/05 18:04:09;;;;;;;28.53;14.70;;;6.40;99.90;;;4.41;100.00;99397.44;10231990;28;98025;-84
2024/01/05 18:09:13;;;;;;;28.57;14.03;;;6.30;99.90;;;4.36;100.00;99399.69;10269466;28;96673;-84
2024/01/05 18:14:18;;;;;;;28.57;14.47;;;6.30;99.90;;;4.26;100.00;99407.66;10248008;28;96491;-84
2024/01/05 18:19:22;;;;;;;21.57;12.53;;;6.20;99.90;;;4.16;100.00;99401.63;10250808;28;96484;-85
2024/01/05 18:24:25;;;;;;;21.37;11.90;;;6.10;99.90;;;4.09;100.00;99404.97;10249485;28;96429;-85
2024/01/05 18:29:29;;;;;;;25.83;12.37;;;6.00;99.90;;;3.99;100.00;99403.22;10233218;28;96790;-85
2024/01/05 18:34:34;;;;;;;29.83;14.10;;;6.00;99.90;;;3.92;100.00;99403.94;10247935;28;97843;-85
2024/01/05 18:39:38;;;;;;;30.07;13.03;;;5.80;99.90;;;3.82;100.00;99396.09;10256024;28;96974;-85
2024/01/05 18:44:42;;;;;;;30.87;14.73;;;5.80;99.90;;;3.78;100.00;99421.03;10254236;28;96652;-85
2024/01/05 18:49:47;;;;;;;36.07;15.53;;;5.70;99.90;;;3.68;100.00;99410.53;10255374;28;96536;-84
2024/01/05 18:54:51;;;;;;;37.13;17.47;;;5.60;99.90;;;3.68;100.00;99409.69;10263816;28;96593;-84
2024/01/05 18:59:54;;;;;;;34.20;16.13;;;5.60;99.90;;;3.61;100.00;99421.75;10257060;28;96437;-84
2024/01/05 19:04:58;;;;;;;34.93;15.27;;;5.50;99.90;;;3.52;100.00;99404.19;10260513;28;97270;-84
2024/01/05 19:10:03;;;;;;;30.87;15.07;;;5.40;99.90;;;3.44;100.00;99408.38;10238792;28;97928;-84
2024/01/05 19:15:07;;;;;;;30.13;13.57;;;5.40;99.90;;;3.36;100.00;99399.53;10250548;28;96681;-84
2024/01/05 19:20:12;;;;;;;26.37;13.47;;;5.30;99.90;;;3.29;100.00;99401.06;10214489;28;96514;-84
2024/01/05 19:25:16;;;;;;;24.50;12.20;;;5.20;99.90;;;3.18;100.00;99413.41;10232167;28;96490;-84
2024/01/05 19:30:20;;;;;;;27.73;13.33;;;5.10;99.90;;;3.08;100.00;99414.38;10252835;28;97453;-84
2024/01/05 19:35:23;;;;;;;21.13;12.13;;;5.00;99.90;;;3.00;100.00;99411.59;10267902;28;99693;-85
2024/01/05 19:40:27;;;;;;;22.47;10.97;;;4.90;99.90;;;2.93;100.00;99411.31;10277281;28;98402;-84
2024/01/05 19:45:30;;;;;;;22.83;11.17;;;4.80;99.90;;;2.82;100.00;99407.06;10260660;28;96453;-84
2024/01/05 19:50:36;;;;;;;27.40;13.30;;;4.70;99.90;;;2.81;100.00;99396.69;10255017;28;96407;-85
2024/01/05 19:55:40;;;;;;;27.40;13.60;;;4.70;99.90;;;2.75;100.00;99400.69;10253070;28;97803;-85
2024/01/05 20:00:46;;;;;;;25.50;11.27;;;4.70;99.90;;;2.71;100.00;99404.56;10255845;28;96647;-85
2024/01/05 20:05:51;;;;;;;24.33;11.47;;;4.60;99.90;;;2.61;100.00;99393.22;10260736;28;98151;-84
2024/01/05 20:10:54;;;;;;;25.57;11.93;;;4.60;99.90;;;2.57;100.00;99392.66;10246677;28;96516;-84
2024/01/05 20:15:58;;;;;;;22.00;11.67;;;4.50;99.90;;;2.49;100.00;99383.81;10253331;28;96366;-84
2024/01/05 20:21:01;;;;;;;23.97;11.40;;;4.40;99.90;;;2.40;100.00;99388.94;10252094;28;96653;-84
2024/01/05 20:26:05;;;;;;;25.87;11.27;;;4.40;99.90;;;2.35;100.00;99383.25;10253876;28;96485;-84
2024/01/05 20:31:08;;;;;;;29.97;13.97;;;4.30;99.90;;;2.31;100.00;99370.53;10253443;28;97870;-84
2024/01/05 20:36:17;;;;;;;27.70;12.87;;;4.30;99.90;;;2.23;100.00;99379.09;10252050;28;96553;-84
2024/01/05 20:41:21;;;;;;;21.13;11.00;;;4.20;99.90;;;2.15;100.00;99376.28;10252515;28;96929;-84
2024/01/05 20:46:24;;;;;;;26.87;13.97;;;4.10;99.90;;;2.03;100.00;99372.94;10253164;28;96528;-84
2024/01/05 20:51:28;;;;;;;26.90;12.73;;;4.00;99.90;;;1.93;100.00;99366.03;10252764;28;96514;-84
2024/01/05 20:56:32;;;;;;;25.80;11.73;;;3.90;99.90;;;1.80;100.00;99355.78;10226983;28;96503;-85
2024/01/05 21:01:41;;;;;;;29.30;13.43;;;3.80;99.90;;;1.73;100.00;99358.09;10250790;28;96677;-84
2024/01/05 21:06:45;;;;;;;30.17;12.37;;;3.70;99.90;;;1.66;100.00;99349.13;10282923;28;96517;-84
2024/01/05 21:11:50;;;;;;;26.63;12.20;;;3.60;99.90;;;1.56;100.00;99343.84;10252004;28;96842;-85
2024/01/05 21:16:54;;;;;;;30.23;13.33;;;3.50;99.90;;;1.54;100.00;99339.69;10252733;28;96396;-85